createdAt,value
2023-02-28T00:00:29.444Z,6.79
2023-02-28T00:01:29.816Z,6.79
2023-02-28T00:02:29.503Z,6.69
2023-02-28T00:03:29.520Z,6.98
2023-02-28T00:04:29.440Z,6.79
2023-02-28T00:05:29.452Z,6.79
2023-02-28T00:06:29.445Z,6.88
2023-02-28T00:07:29.445Z,6.88
2023-02-28T00:08:29.437Z,6.79
2023-02-28T00:09:29.443Z,6.98
2023-02-28T00:10:29.435Z,6.79
2023-02-28T00:11:29.747Z,6.88
2023-02-28T00:12:29.432Z,6.79
2023-02-28T00:13:29.440Z,6.79
2023-02-28T00:14:29.456Z,6.79
2023-02-28T00:15:29.442Z,6.88
2023-02-28T00:16:29.466Z,6.79
2023-02-28T00:17:29.441Z,6.88
2023-02-28T00:18:31.433Z,6.98
2023-02-28T00:19:29.440Z,6.88
2023-02-28T00:20:29.432Z,6.88
2023-02-28T00:21:29.814Z,6.88
2023-02-28T00:22:29.429Z,6.79
2023-02-28T00:23:29.446Z,6.88
2023-02-28T00:24:29.433Z,6.79
2023-02-28T00:25:29.432Z,6.79
2023-02-28T00:26:29.424Z,6.88
2023-02-28T00:27:29.431Z,6.79
2023-02-28T00:28:29.424Z,6.79
2023-02-28T00:29:29.430Z,6.98
2023-02-28T00:30:29.490Z,6.88
2023-02-28T00:31:29.759Z,6.98
2023-02-28T00:32:29.420Z,6.88
2023-02-28T00:33:29.429Z,6.88
2023-02-28T00:34:29.417Z,6.88
2023-02-28T00:35:29.498Z,7.08
2023-02-28T00:36:29.416Z,6.88
2023-02-28T00:37:29.423Z,6.88
2023-02-28T00:38:29.422Z,6.88
2023-02-28T00:39:29.423Z,7.08
2023-02-28T00:40:29.418Z,7.08
2023-02-28T00:41:29.749Z,7.08
2023-02-28T00:42:29.420Z,6.98
2023-02-28T00:43:29.420Z,7.08
2023-02-28T00:44:29.413Z,7.08
2023-02-28T00:45:29.423Z,7.08
2023-02-28T00:46:29.512Z,6.98
2023-02-28T00:47:29.422Z,6.98
2023-02-28T00:48:29.560Z,7.08
2023-02-28T00:49:29.418Z,6.98
2023-02-28T00:50:29.410Z,6.98
2023-02-28T00:51:29.731Z,6.98
2023-02-28T00:52:29.411Z,6.98
2023-02-28T00:53:29.422Z,6.98
2023-02-28T00:54:29.406Z,7.08
2023-02-28T00:55:29.416Z,6.98
2023-02-28T00:56:29.407Z,6.98
2023-02-28T00:57:29.413Z,6.98
2023-02-28T00:58:29.406Z,6.98
2023-02-28T00:59:29.410Z,6.98
2023-02-28T01:00:29.406Z,6.98
2023-02-28T01:01:29.778Z,6.98
2023-02-28T01:02:29.424Z,6.98
2023-02-28T01:03:29.411Z,7.08
2023-02-28T01:04:29.507Z,6.98
2023-02-28T01:05:29.414Z,6.98
2023-02-28T01:06:29.400Z,6.98
2023-02-28T01:07:29.408Z,6.98
2023-02-28T01:08:29.428Z,6.98
2023-02-28T01:09:29.404Z,6.88
2023-02-28T01:10:29.396Z,6.98
2023-02-28T01:11:29.835Z,6.98
2023-02-28T01:12:30.984Z,6.88
2023-02-28T01:13:29.407Z,6.98
2023-02-28T01:14:29.400Z,6.88
2023-02-28T01:15:29.484Z,7.08
2023-02-28T01:16:29.395Z,6.98
2023-02-28T01:17:29.398Z,6.98
2023-02-28T01:18:29.443Z,6.98
2023-02-28T01:19:29.399Z,7.08
2023-02-28T01:20:29.392Z,6.98
2023-02-28T01:21:29.809Z,7.18
2023-02-28T01:22:29.398Z,6.79
2023-02-28T01:23:29.401Z,6.88
2023-02-28T01:24:29.391Z,7.08
2023-02-28T01:25:29.445Z,7.17
2023-02-28T01:26:29.387Z,7.17
2023-02-28T01:27:29.399Z,7.18
2023-02-28T01:28:29.388Z,7.08
2023-02-28T01:29:29.393Z,7.18
2023-02-28T01:30:29.385Z,7.17
2023-02-28T01:31:29.914Z,6.88
2023-02-28T01:32:29.383Z,7.18
2023-02-28T01:33:29.390Z,6.98
2023-02-28T01:34:29.405Z,7.17
2023-02-28T01:35:29.407Z,7.18
2023-02-28T01:36:29.382Z,7.17
2023-02-28T01:37:29.408Z,7.18
2023-02-28T01:38:29.375Z,7.17
2023-02-28T01:39:29.384Z,7.08
2023-02-28T01:40:29.377Z,7.18
2023-02-28T01:41:29.634Z,6.98
2023-02-28T01:42:29.372Z,6.98
2023-02-28T01:43:29.379Z,7.08
2023-02-28T01:44:29.374Z,6.98
2023-02-28T01:45:29.383Z,6.98
2023-02-28T01:46:29.414Z,6.98
2023-02-28T01:47:29.376Z,6.98
2023-02-28T01:48:29.374Z,7.17
2023-02-28T01:49:29.376Z,6.98
2023-02-28T01:50:29.394Z,6.98
2023-02-28T01:51:29.730Z,7.17
2023-02-28T01:52:29.361Z,6.98
2023-02-28T01:53:29.370Z,7.08
2023-02-28T01:54:29.370Z,6.98
2023-02-28T01:55:29.376Z,7.08
2023-02-28T01:56:29.369Z,6.88
2023-02-28T01:57:29.366Z,7.08
2023-02-28T01:58:29.357Z,6.98
2023-02-28T01:59:29.376Z,6.98
2023-02-28T02:00:29.364Z,6.98
2023-02-28T02:01:29.766Z,6.98
2023-02-28T02:02:29.429Z,6.98
2023-02-28T02:03:29.362Z,6.98
2023-02-28T02:04:29.356Z,6.98
2023-02-28T02:05:29.380Z,7.08
2023-02-28T02:06:29.379Z,6.98
2023-02-28T02:07:29.361Z,6.98
2023-02-28T02:08:29.367Z,6.98
2023-02-28T02:09:29.360Z,6.98
2023-02-28T02:10:29.382Z,6.98
2023-02-28T02:11:29.643Z,6.98
2023-02-28T02:12:29.358Z,6.98
2023-02-28T02:13:29.356Z,6.98
2023-02-28T02:14:29.351Z,6.98
2023-02-28T02:15:29.356Z,7.08
2023-02-28T02:16:29.349Z,7.08
2023-02-28T02:17:29.353Z,7.18
2023-02-28T02:18:29.353Z,7.17
2023-02-28T02:19:29.354Z,7.18
2023-02-28T02:20:29.353Z,7.08
2023-02-28T02:21:29.774Z,7.08
2023-02-28T02:22:29.370Z,7.17
2023-02-28T02:23:29.353Z,6.98
2023-02-28T02:24:29.363Z,7.08
2023-02-28T02:25:29.344Z,6.98
2023-02-28T02:26:29.346Z,7.08
2023-02-28T02:27:29.337Z,7.08
2023-02-28T02:28:29.349Z,7.18
2023-02-28T02:29:29.341Z,7.17
2023-02-28T02:30:29.348Z,6.98
2023-02-28T02:31:29.719Z,6.98
2023-02-28T02:32:29.435Z,7.08
2023-02-28T02:33:29.335Z,7.08
2023-02-28T02:34:29.354Z,7.08
2023-02-28T02:35:29.390Z,7.08
2023-02-28T02:36:29.349Z,7.08
2023-02-28T02:37:29.339Z,7.08
2023-02-28T02:38:29.361Z,7.08
2023-02-28T02:39:29.334Z,7.08
2023-02-28T02:40:29.338Z,7.08
2023-02-28T02:41:29.728Z,7.08
2023-02-28T02:42:29.338Z,7.18
2023-02-28T02:43:29.328Z,7.08
2023-02-28T02:44:29.335Z,7.08
2023-02-28T02:45:29.334Z,7.08
2023-02-28T02:46:29.363Z,7.18
2023-02-28T02:47:29.329Z,7.08
2023-02-28T02:48:29.483Z,7.18
2023-02-28T02:49:29.326Z,7.17
2023-02-28T02:50:29.335Z,7.08
2023-02-28T02:51:29.674Z,7.08
2023-02-28T02:52:29.340Z,7.18
2023-02-28T02:53:29.325Z,7.08
2023-02-28T02:54:29.350Z,7.18
2023-02-28T02:55:29.324Z,7.08
2023-02-28T02:56:29.332Z,7.28
2023-02-28T02:57:29.321Z,7.17
2023-02-28T02:58:29.330Z,7.08
2023-02-28T02:59:29.320Z,6.98
2023-02-28T03:00:29.325Z,7.08
2023-02-28T03:01:29.772Z,7.28
2023-02-28T03:02:29.324Z,7.27
2023-02-28T03:03:29.346Z,7.27
2023-02-28T03:04:29.328Z,7.08
2023-02-28T03:05:29.316Z,7.28
2023-02-28T03:06:29.319Z,7.08
2023-02-28T03:07:29.315Z,7.18
2023-02-28T03:08:29.328Z,7.17
2023-02-28T03:09:29.314Z,7.18
2023-02-28T03:10:29.360Z,7.18
2023-02-28T03:11:29.784Z,7.27
2023-02-28T03:12:29.319Z,7.18
2023-02-28T03:13:29.323Z,7.17
2023-02-28T03:14:29.315Z,7.17
2023-02-28T03:15:29.309Z,7.18
2023-02-28T03:16:29.376Z,7.18
2023-02-28T03:17:29.307Z,7.27
2023-02-28T03:18:29.314Z,7.27
2023-02-28T03:19:29.305Z,7.27
2023-02-28T03:20:29.314Z,7.08
2023-02-28T03:21:29.704Z,7.08
2023-02-28T03:22:29.311Z,7.28
2023-02-28T03:23:29.304Z,7.18
2023-02-28T03:24:29.312Z,7.08
2023-02-28T03:25:29.304Z,7.08
2023-02-28T03:26:29.332Z,7.27
2023-02-28T03:27:29.302Z,7.08
2023-02-28T03:28:29.309Z,7.08
2023-02-28T03:29:29.316Z,7.18
2023-02-28T03:30:29.310Z,7.08
2023-02-28T03:31:29.665Z,6.98
2023-02-28T03:32:29.334Z,6.98
2023-02-28T03:33:29.310Z,7.08
2023-02-28T03:34:29.308Z,7.08
2023-02-28T03:35:29.327Z,7.27
2023-02-28T03:36:29.305Z,6.98
2023-02-28T03:37:29.298Z,6.98
2023-02-28T03:38:29.306Z,6.98
2023-02-28T03:39:29.296Z,7.08
2023-02-28T03:40:29.302Z,6.98
2023-02-28T03:41:29.739Z,6.98
2023-02-28T03:42:29.337Z,6.98
2023-02-28T03:43:29.312Z,6.88
2023-02-28T03:44:29.301Z,6.98
2023-02-28T03:45:29.300Z,6.98
2023-02-28T03:46:29.300Z,6.88
2023-02-28T03:47:29.296Z,6.88
2023-02-28T03:48:29.300Z,6.98
2023-02-28T03:49:29.301Z,6.98
2023-02-28T03:50:29.299Z,6.88
2023-02-28T03:51:29.597Z,6.98
2023-02-28T03:52:29.299Z,6.88
2023-02-28T03:53:29.294Z,6.98
2023-02-28T03:54:29.300Z,6.98
2023-02-28T03:55:29.293Z,6.88
2023-02-28T03:56:29.292Z,6.98
2023-02-28T03:57:29.291Z,6.98
2023-02-28T03:58:29.318Z,6.88
2023-02-28T03:59:29.286Z,6.98
2023-02-28T04:00:29.313Z,6.98
2023-02-28T04:01:29.641Z,7.08
2023-02-28T04:02:29.290Z,6.88
2023-02-28T04:03:29.281Z,6.98
2023-02-28T04:04:29.453Z,7.08
2023-02-28T04:05:29.282Z,6.98
2023-02-28T04:06:29.288Z,7.08
2023-02-28T04:07:29.279Z,7.08
2023-02-28T04:08:29.285Z,6.98
2023-02-28T04:09:29.279Z,7.08
2023-02-28T04:10:29.286Z,6.98
2023-02-28T04:11:29.577Z,6.88
2023-02-28T04:12:29.287Z,6.98
2023-02-28T04:13:29.275Z,7.08
2023-02-28T04:14:29.306Z,6.98
2023-02-28T04:15:29.272Z,6.98
2023-02-28T04:16:35.294Z,7.08
2023-02-28T04:17:29.277Z,7.08
2023-02-28T04:18:29.278Z,7.08
2023-02-28T04:19:29.269Z,6.98
2023-02-28T04:20:29.277Z,6.98
2023-02-28T04:21:29.723Z,7.08
2023-02-28T04:22:29.280Z,6.98
2023-02-28T04:23:29.269Z,6.98
2023-02-28T04:24:29.276Z,7.18
2023-02-28T04:25:29.267Z,6.98
2023-02-28T04:26:29.275Z,7.08
2023-02-28T04:27:31.234Z,7.28
2023-02-28T04:28:29.271Z,6.98
2023-02-28T04:29:29.279Z,6.98
2023-02-28T04:30:29.293Z,6.98
2023-02-28T04:31:29.635Z,7.08
2023-02-28T04:32:29.310Z,6.98
2023-02-28T04:33:29.263Z,6.88
2023-02-28T04:34:29.265Z,6.88
2023-02-28T04:35:29.322Z,7.08
2023-02-28T04:36:29.269Z,7.08
2023-02-28T04:37:29.270Z,6.98
2023-02-28T04:38:29.279Z,7.08
2023-02-28T04:39:29.255Z,7.08
2023-02-28T04:40:29.263Z,6.98
2023-02-28T04:41:32.317Z,7.08
2023-02-28T04:42:29.259Z,7.17
2023-02-28T04:43:29.250Z,6.88
2023-02-28T04:44:29.258Z,6.88
2023-02-28T04:45:29.275Z,7.08
2023-02-28T04:46:29.277Z,6.88
2023-02-28T04:47:29.252Z,7.27
2023-02-28T04:48:29.257Z,6.98
2023-02-28T04:49:29.267Z,7.27
2023-02-28T04:50:29.251Z,7.27
2023-02-28T04:51:29.524Z,6.98
2023-02-28T04:52:29.249Z,7.27
2023-02-28T04:53:29.242Z,7.27
2023-02-28T04:54:29.278Z,7.28
2023-02-28T04:55:29.244Z,7.27
2023-02-28T04:56:29.247Z,6.98
2023-02-28T04:57:29.238Z,7.27
2023-02-28T04:58:29.245Z,7.27
2023-02-28T04:59:29.235Z,7.27
2023-02-28T05:00:29.243Z,7.27
2023-02-28T05:01:29.582Z,7.27
2023-02-28T05:02:29.315Z,7.27
2023-02-28T05:03:29.236Z,7.27
2023-02-28T05:04:29.286Z,7.27
2023-02-28T05:05:29.232Z,7.27
2023-02-28T05:06:29.241Z,7.17
2023-02-28T05:07:29.231Z,7.27
2023-02-28T05:08:29.239Z,6.98
2023-02-28T05:09:29.233Z,6.88
2023-02-28T05:10:29.236Z,6.98
2023-02-28T05:11:29.597Z,6.98
2023-02-28T05:12:29.234Z,7.27
2023-02-28T05:13:29.227Z,7.27
2023-02-28T05:14:29.234Z,7.08
2023-02-28T05:15:29.225Z,7.17
2023-02-28T05:16:29.294Z,7.08
2023-02-28T05:17:29.226Z,6.98
2023-02-28T05:18:29.296Z,6.98
2023-02-28T05:19:29.221Z,7.17
2023-02-28T05:20:29.234Z,7.08
2023-02-28T05:21:29.551Z,7.08
2023-02-28T05:22:29.227Z,6.98
2023-02-28T05:23:29.220Z,6.88
2023-02-28T05:24:29.232Z,6.88
2023-02-28T05:25:29.221Z,6.79
2023-02-28T05:26:29.226Z,6.59
2023-02-28T05:27:29.230Z,6.69
2023-02-28T05:28:29.223Z,6.79
2023-02-28T05:29:29.218Z,6.50
2023-02-28T05:30:29.220Z,6.40
2023-02-28T05:31:29.566Z,6.59
2023-02-28T05:32:29.341Z,6.49
2023-02-28T05:33:29.213Z,6.59
2023-02-28T05:34:29.241Z,6.50
2023-02-28T05:35:29.248Z,6.60
2023-02-28T05:36:29.220Z,6.60
2023-02-28T05:37:29.221Z,6.59
2023-02-28T05:38:29.234Z,6.50
2023-02-28T05:39:29.208Z,6.60
2023-02-28T05:40:29.216Z,6.60
2023-02-28T05:41:29.622Z,6.40
2023-02-28T05:42:29.215Z,6.60
2023-02-28T05:43:29.205Z,6.50
2023-02-28T05:44:29.220Z,6.49
2023-02-28T05:45:29.281Z,6.69
2023-02-28T05:46:29.209Z,6.30
2023-02-28T05:47:29.203Z,6.11
2023-02-28T05:48:29.239Z,6.21
2023-02-28T05:49:29.200Z,6.21
2023-02-28T05:50:29.228Z,6.11
2023-02-28T05:51:29.500Z,6.11
2023-02-28T05:52:29.210Z,6.21
2023-02-28T05:53:29.202Z,6.49
2023-02-28T05:54:29.205Z,6.30
2023-02-28T05:55:29.196Z,6.40
2023-02-28T05:56:29.208Z,6.40
2023-02-28T05:57:29.195Z,6.30
2023-02-28T05:58:29.201Z,6.50
2023-02-28T05:59:29.194Z,6.30
2023-02-28T06:00:29.204Z,6.01
2023-02-28T06:01:29.510Z,6.11
2023-02-28T06:02:29.241Z,6.11
2023-02-28T06:03:29.256Z,5.63
2023-02-28T06:04:32.132Z,5.82
2023-02-28T06:05:29.191Z,5.52
2023-02-28T06:06:29.218Z,5.73
2023-02-28T06:07:29.188Z,5.43
2023-02-28T06:08:29.195Z,5.91
2023-02-28T06:09:29.193Z,5.91
2023-02-28T06:10:29.194Z,5.73
2023-02-28T06:11:29.803Z,5.82
2023-02-28T06:12:29.200Z,5.82
2023-02-28T06:13:29.186Z,5.53
2023-02-28T06:14:29.199Z,5.82
2023-02-28T06:15:29.183Z,5.73
2023-02-28T06:16:29.227Z,5.72
2023-02-28T06:17:29.187Z,5.82
2023-02-28T06:18:29.191Z,5.73
2023-02-28T06:19:29.182Z,5.82
2023-02-28T06:20:29.189Z,5.82
2023-02-28T06:21:29.639Z,6.11
2023-02-28T06:22:29.212Z,5.72
2023-02-28T06:23:29.186Z,5.72
2023-02-28T06:24:29.231Z,6.11
2023-02-28T06:25:29.201Z,5.91
2023-02-28T06:26:29.186Z,6.11
2023-02-28T06:27:29.180Z,5.82
2023-02-28T06:28:29.186Z,5.82
2023-02-28T06:29:29.179Z,5.73
2023-02-28T06:30:29.188Z,5.73
2023-02-28T06:31:29.534Z,5.82
2023-02-28T06:32:29.185Z,5.63
2023-02-28T06:33:29.176Z,5.63
2023-02-28T06:34:29.183Z,5.91
2023-02-28T06:35:29.197Z,5.91
2023-02-28T06:36:29.184Z,5.73
2023-02-28T06:37:29.174Z,5.53
2023-02-28T06:38:29.207Z,5.91
2023-02-28T06:39:29.173Z,5.53
2023-02-28T06:40:29.181Z,6.21
2023-02-28T06:41:30.447Z,6.21
2023-02-28T06:42:29.169Z,5.82
2023-02-28T06:44:29.171Z,5.82
2023-02-28T06:45:29.178Z,5.63
2023-02-28T06:46:29.190Z,5.53
2023-02-28T06:47:29.177Z,5.82
2023-02-28T06:48:29.180Z,5.53
2023-02-28T06:49:29.176Z,5.53
2023-02-28T06:50:29.167Z,5.63
2023-02-28T06:51:29.509Z,5.63
2023-02-28T06:52:29.166Z,5.73
2023-02-28T06:53:29.174Z,5.82
2023-02-28T06:54:29.191Z,5.53
2023-02-28T06:55:30.696Z,5.63
2023-02-28T06:56:29.166Z,5.53
2023-02-28T06:57:29.171Z,5.14
2023-02-28T06:58:29.164Z,5.33
2023-02-28T06:59:29.172Z,7.08
2023-02-28T07:00:29.164Z,8.93
2023-02-28T07:01:29.619Z,7.96
2023-02-28T07:02:29.165Z,6.99
2023-02-28T07:03:29.165Z,6.12
2023-02-28T07:04:29.165Z,5.82
2023-02-28T07:05:29.166Z,6.12
2023-02-28T07:06:29.158Z,5.82
2023-02-28T07:07:29.162Z,5.73
2023-02-28T07:08:29.157Z,5.63
2023-02-28T07:09:29.161Z,5.73
2023-02-28T07:10:29.219Z,5.53
2023-02-28T07:11:29.509Z,5.43
2023-02-28T07:12:29.152Z,5.73
2023-02-28T07:13:29.159Z,5.63
2023-02-28T07:14:29.149Z,5.63
2023-02-28T07:15:29.155Z,5.53
2023-02-28T07:16:29.230Z,5.24
2023-02-28T07:17:29.154Z,5.53
2023-02-28T07:18:29.175Z,5.24
2023-02-28T07:19:29.156Z,5.82
2023-02-28T07:20:29.242Z,5.33
2023-02-28T07:21:29.538Z,5.43
2023-02-28T07:22:29.146Z,5.24
2023-02-28T07:23:29.151Z,5.15
2023-02-28T07:24:29.146Z,5.24
2023-02-28T07:25:29.154Z,5.43
2023-02-28T07:26:29.172Z,5.24
2023-02-28T07:27:29.151Z,5.05
2023-02-28T07:28:29.143Z,5.05
2023-02-28T07:29:29.154Z,5.34
2023-02-28T07:30:29.142Z,5.05
2023-02-28T07:31:29.539Z,4.85
2023-02-28T07:32:29.199Z,4.85
2023-02-28T07:33:29.152Z,4.95
2023-02-28T07:34:29.140Z,4.95
2023-02-28T07:35:29.186Z,4.95
2023-02-28T07:36:29.144Z,4.75
2023-02-28T07:37:29.150Z,4.95
2023-02-28T07:38:29.145Z,5.05
2023-02-28T07:39:29.153Z,5.73
2023-02-28T07:40:29.143Z,5.73
2023-02-28T07:41:29.498Z,5.24
2023-02-28T07:42:29.172Z,4.95
2023-02-28T07:43:29.150Z,5.15
2023-02-28T07:44:29.150Z,5.05
2023-02-28T07:45:29.156Z,4.56
2023-02-28T07:46:30.752Z,4.66
2023-02-28T07:47:29.153Z,4.75
2023-02-28T07:48:29.152Z,4.75
2023-02-28T07:49:29.154Z,4.95
2023-02-28T07:50:29.147Z,4.47
2023-02-28T07:51:29.503Z,4.66
2023-02-28T07:52:29.147Z,4.56
2023-02-28T07:53:29.166Z,4.66
2023-02-28T07:54:29.147Z,4.66
2023-02-28T07:55:29.164Z,4.66
2023-02-28T07:56:29.597Z,4.56
2023-02-28T07:57:29.156Z,5.05
2023-02-28T07:58:29.173Z,5.05
2023-02-28T07:59:32.090Z,4.57
2023-02-28T08:00:29.175Z,4.66
2023-02-28T08:01:29.591Z,4.75
2023-02-28T08:02:29.149Z,4.76
2023-02-28T08:03:29.162Z,4.66
2023-02-28T08:04:29.150Z,4.86
2023-02-28T08:05:29.158Z,4.76
2023-02-28T08:06:29.149Z,4.37
2023-02-28T08:07:29.155Z,4.66
2023-02-28T08:08:29.151Z,4.47
2023-02-28T08:09:29.157Z,4.47
2023-02-28T08:10:29.149Z,4.47
2023-02-28T08:11:29.469Z,4.37
2023-02-28T08:12:29.147Z,4.47
2023-02-28T08:13:29.157Z,4.66
2023-02-28T08:14:29.180Z,4.66
2023-02-28T08:15:29.154Z,4.66
2023-02-28T08:16:29.192Z,4.66
2023-02-28T08:17:29.155Z,4.57
2023-02-28T08:18:29.147Z,4.66
2023-02-28T08:19:29.160Z,4.47
2023-02-28T08:20:29.152Z,4.57
2023-02-28T08:21:29.448Z,4.27
2023-02-28T08:22:29.148Z,4.27
2023-02-28T08:23:29.153Z,4.66
2023-02-28T08:24:29.148Z,4.47
2023-02-28T08:25:29.156Z,4.66
2023-02-28T08:26:29.150Z,4.56
2023-02-28T08:27:29.153Z,4.57
2023-02-28T08:28:29.146Z,4.27
2023-02-28T08:29:29.152Z,4.27
2023-02-28T08:30:29.214Z,4.85
2023-02-28T08:31:29.647Z,4.56
2023-02-28T08:32:30.532Z,4.17
2023-02-28T08:33:29.169Z,4.27
2023-02-28T08:34:29.146Z,4.27
2023-02-28T08:35:29.208Z,4.27
2023-02-28T08:36:29.167Z,4.08
2023-02-28T08:37:29.153Z,4.27
2023-02-28T08:38:29.145Z,4.27
2023-02-28T08:39:29.154Z,4.27
2023-02-28T08:40:29.157Z,4.27
2023-02-28T08:41:29.572Z,4.27
2023-02-28T08:42:29.148Z,4.27
2023-02-28T08:43:29.173Z,4.27
2023-02-28T08:44:29.152Z,4.27
2023-02-28T08:45:29.183Z,4.27
2023-02-28T08:46:29.178Z,4.37
2023-02-28T08:47:29.152Z,4.37
2023-02-28T08:48:29.149Z,4.17
2023-02-28T08:49:29.150Z,4.27
2023-02-28T08:50:29.141Z,4.27
2023-02-28T08:51:29.475Z,4.27
2023-02-28T08:52:29.148Z,4.27
2023-02-28T08:53:29.151Z,4.27
2023-02-28T08:54:29.145Z,4.66
2023-02-28T08:55:29.147Z,4.27
2023-02-28T08:56:29.149Z,4.37
2023-02-28T08:57:29.156Z,4.27
2023-02-28T08:58:29.139Z,4.27
2023-02-28T08:59:29.151Z,4.17
2023-02-28T09:00:29.147Z,4.27
2023-02-28T09:01:29.742Z,4.27
2023-02-28T09:02:29.160Z,4.27
2023-02-28T09:03:29.144Z,4.56
2023-02-28T09:04:29.138Z,4.27
2023-02-28T09:05:29.155Z,4.27
2023-02-28T09:06:29.574Z,4.27
2023-02-28T09:07:29.150Z,4.27
2023-02-28T09:08:29.137Z,4.08
2023-02-28T09:09:29.144Z,4.37
2023-02-28T09:10:29.137Z,4.47
2023-02-28T09:11:29.158Z,4.27
2023-02-28T09:12:29.138Z,4.27
2023-02-28T09:13:29.144Z,4.66
2023-02-28T09:14:29.143Z,4.56
2023-02-28T09:15:29.149Z,4.08
2023-02-28T09:16:29.213Z,4.56
2023-02-28T09:17:30.870Z,4.27
2023-02-28T09:18:29.163Z,4.17
2023-02-28T09:19:29.145Z,4.27
2023-02-28T09:20:29.144Z,4.27
2023-02-28T09:21:29.675Z,4.37
2023-02-28T09:22:29.155Z,4.27
2023-02-28T09:23:29.143Z,4.27
2023-02-28T09:24:29.139Z,4.27
2023-02-28T09:25:29.157Z,4.27
2023-02-28T09:26:34.949Z,4.27
2023-02-28T09:27:29.146Z,4.27
2023-02-28T09:28:29.139Z,4.47
2023-02-28T09:29:29.148Z,4.27
2023-02-28T09:30:29.182Z,4.27
2023-02-28T09:31:29.173Z,4.47
2023-02-28T09:32:29.226Z,4.47
2023-02-28T09:33:29.181Z,4.37
2023-02-28T09:34:29.275Z,4.47
2023-02-28T09:35:29.146Z,4.47
2023-02-28T09:36:41.559Z,4.37
2023-02-28T09:37:29.148Z,4.56
2023-02-28T09:38:29.140Z,4.27
2023-02-28T09:39:29.149Z,4.27
2023-02-28T09:40:29.139Z,3.98
2023-02-28T09:41:29.163Z,4.08
2023-02-28T09:42:29.139Z,4.37
2023-02-28T09:43:29.155Z,4.17
2023-02-28T09:44:29.138Z,4.08
2023-02-28T09:45:29.146Z,4.17
2023-02-28T09:46:29.325Z,4.75
2023-02-28T09:47:29.156Z,4.27
2023-02-28T09:48:29.139Z,4.66
2023-02-28T09:49:29.147Z,4.27
2023-02-28T09:50:29.165Z,4.47
2023-02-28T09:51:29.584Z,4.47
2023-02-28T09:52:29.142Z,4.27
2023-02-28T09:53:29.162Z,3.98
2023-02-28T09:54:29.157Z,4.17
2023-02-28T09:55:32.747Z,4.08
2023-02-28T09:56:29.363Z,4.08
2023-02-28T09:57:29.145Z,4.08
2023-02-28T09:58:29.138Z,4.47
2023-02-28T09:59:29.148Z,3.88
2023-02-28T10:00:29.139Z,4.37
2023-02-28T10:01:29.507Z,4.17
2023-02-28T10:02:29.143Z,3.88
2023-02-28T10:03:29.146Z,4.47
2023-02-28T10:04:29.197Z,4.37
2023-02-28T10:05:29.148Z,4.37
2023-02-28T10:06:29.175Z,4.47
2023-02-28T10:07:29.152Z,4.27
2023-02-28T10:08:29.149Z,4.27
2023-02-28T10:09:29.149Z,4.27
2023-02-28T10:10:29.148Z,4.17
2023-02-28T10:11:29.543Z,4.17
2023-02-28T10:12:29.155Z,4.17
2023-02-28T10:13:29.149Z,4.17
2023-02-28T10:14:29.166Z,4.08
2023-02-28T10:15:29.146Z,3.98
2023-02-28T10:16:29.445Z,4.17
2023-02-28T10:17:29.146Z,4.27
2023-02-28T10:18:29.145Z,4.08
2023-02-28T10:19:29.145Z,3.98
2023-02-28T10:20:29.138Z,4.08
2023-02-28T10:21:29.148Z,4.08
2023-02-28T10:22:29.159Z,3.98
2023-02-28T10:23:29.152Z,4.08
2023-02-28T10:24:29.144Z,3.98
2023-02-28T10:25:29.208Z,4.37
2023-02-28T10:26:29.459Z,4.08
2023-02-28T10:27:29.153Z,4.66
2023-02-28T10:28:29.138Z,4.08
2023-02-28T10:29:29.146Z,3.98
2023-02-28T10:30:29.209Z,4.27
2023-02-28T10:31:29.284Z,3.98
2023-02-28T10:32:29.140Z,3.98
2023-02-28T10:33:29.191Z,4.47
2023-02-28T10:34:29.138Z,4.08
2023-02-28T10:35:29.157Z,4.47
2023-02-28T10:36:29.396Z,4.27
2023-02-28T10:37:29.149Z,4.57
2023-02-28T10:38:29.164Z,4.17
2023-02-28T10:39:29.152Z,4.27
2023-02-28T10:40:29.141Z,4.47
2023-02-28T10:41:29.150Z,4.57
2023-02-28T10:42:29.139Z,4.27
2023-02-28T10:43:29.147Z,4.27
2023-02-28T10:44:29.147Z,4.27
2023-02-28T10:45:29.151Z,4.47
2023-02-28T10:46:29.541Z,4.47
2023-02-28T10:47:29.146Z,4.27
2023-02-28T10:48:29.141Z,4.47
2023-02-28T10:49:29.151Z,4.47
2023-02-28T10:50:29.146Z,4.27
2023-02-28T10:51:29.149Z,4.27
2023-02-28T10:52:29.140Z,4.17
2023-02-28T10:53:29.149Z,4.66
2023-02-28T10:54:29.164Z,3.98
2023-02-28T10:55:29.146Z,3.98
2023-02-28T10:56:29.183Z,3.88
2023-02-28T10:57:29.158Z,3.98
2023-02-28T10:58:29.145Z,4.37
2023-02-28T10:59:29.138Z,4.17
2023-02-28T11:00:29.146Z,4.17
2023-02-28T11:01:29.207Z,4.17
2023-02-28T11:02:29.149Z,4.17
2023-02-28T11:03:29.136Z,4.17
2023-02-28T11:04:29.197Z,4.17
2023-02-28T11:05:29.135Z,4.17
2023-02-28T11:06:29.471Z,4.17
2023-02-28T11:07:37.303Z,4.17
2023-02-28T11:08:29.144Z,4.37
2023-02-28T11:09:29.137Z,4.17
2023-02-28T11:10:29.168Z,4.37
2023-02-28T11:11:29.492Z,4.08
2023-02-28T11:12:29.166Z,4.08
2023-02-28T11:13:29.143Z,4.17
2023-02-28T11:14:29.154Z,4.17
2023-02-28T11:15:29.140Z,4.08
2023-02-28T11:16:29.143Z,4.17
2023-02-28T11:17:29.135Z,4.17
2023-02-28T11:18:29.141Z,4.47
2023-02-28T11:19:29.134Z,4.47
2023-02-28T11:20:29.169Z,4.27
2023-02-28T11:21:29.472Z,4.37
2023-02-28T11:22:29.141Z,3.88
2023-02-28T11:23:29.134Z,3.98
2023-02-28T11:24:29.142Z,4.17
2023-02-28T11:25:29.134Z,4.17
2023-02-28T11:26:29.199Z,4.47
2023-02-28T11:27:29.132Z,4.17
2023-02-28T11:28:29.151Z,4.17
2023-02-28T11:29:29.199Z,4.37
2023-02-28T11:30:29.152Z,4.27
2023-02-28T11:31:29.503Z,4.17
2023-02-28T11:32:29.272Z,3.98
2023-02-28T11:33:29.145Z,4.17
2023-02-28T11:34:29.138Z,4.08
2023-02-28T11:35:29.132Z,3.98
2023-02-28T11:36:29.138Z,4.56
2023-02-28T11:37:29.132Z,4.08
2023-02-28T11:38:29.138Z,4.08
2023-02-28T11:39:29.131Z,3.98
2023-02-28T11:40:29.150Z,4.17
2023-02-28T11:41:29.407Z,4.47
2023-02-28T11:42:29.171Z,4.17
2023-02-28T11:43:29.139Z,4.08
2023-02-28T11:44:29.142Z,4.57
2023-02-28T11:45:29.132Z,4.17
2023-02-28T11:46:29.176Z,4.17
2023-02-28T11:47:29.141Z,4.17
2023-02-28T11:48:29.136Z,3.88
2023-02-28T11:49:29.134Z,4.17
2023-02-28T11:50:29.137Z,4.17
2023-02-28T11:51:29.360Z,3.88
2023-02-28T11:52:29.137Z,3.98
2023-02-28T11:53:29.128Z,4.27
2023-02-28T11:54:29.172Z,4.47
2023-02-28T11:55:29.132Z,4.47
2023-02-28T11:56:29.141Z,4.66
2023-02-28T11:57:29.132Z,4.75
2023-02-28T11:58:29.238Z,4.37
2023-02-28T11:59:29.134Z,4.17
2023-02-28T12:00:29.142Z,4.27
2023-02-28T12:01:29.416Z,4.17
2023-02-28T12:02:29.221Z,4.17
2023-02-28T12:03:29.237Z,4.47
2023-02-28T12:04:29.146Z,4.08
2023-02-28T12:05:29.138Z,4.17
2023-02-28T12:06:29.148Z,4.08
2023-02-28T12:07:29.150Z,4.47
2023-02-28T12:08:29.150Z,4.17
2023-02-28T12:09:29.138Z,4.08
2023-02-28T12:10:29.145Z,4.17
2023-02-28T12:11:29.499Z,4.08
2023-02-28T12:12:29.146Z,4.37
2023-02-28T12:13:29.182Z,4.27
2023-02-28T12:14:29.171Z,4.17
2023-02-28T12:15:29.139Z,3.98
2023-02-28T12:16:29.259Z,3.98
2023-02-28T12:17:29.144Z,3.98
2023-02-28T12:18:29.168Z,4.47
2023-02-28T12:19:29.143Z,4.47
2023-02-28T12:20:29.208Z,3.98
2023-02-28T12:21:29.474Z,3.98
2023-02-28T12:22:29.147Z,3.88
2023-02-28T12:23:29.144Z,3.98
2023-02-28T12:24:29.151Z,3.98
2023-02-28T12:25:29.144Z,3.98
2023-02-28T12:26:29.150Z,4.37
2023-02-28T12:27:29.143Z,3.98
2023-02-28T12:28:29.148Z,3.98
2023-02-28T12:29:29.141Z,3.98
2023-02-28T12:30:29.172Z,3.98
2023-02-28T12:31:29.450Z,3.88
2023-02-28T12:32:29.234Z,4.37
2023-02-28T12:33:30.562Z,4.47
2023-02-28T12:34:29.151Z,4.08
2023-02-28T12:35:29.142Z,3.98
2023-02-28T12:36:29.150Z,3.88
2023-02-28T12:37:29.143Z,4.47
2023-02-28T12:38:29.144Z,3.98
2023-02-28T12:39:31.080Z,4.17
2023-02-28T12:40:29.145Z,4.17
2023-02-28T12:41:29.362Z,3.98
2023-02-28T12:42:29.143Z,3.98
2023-02-28T12:43:29.140Z,3.88
2023-02-28T12:44:29.145Z,3.98
2023-02-28T12:45:29.155Z,3.88
2023-02-28T12:46:29.276Z,3.88
2023-02-28T12:47:29.140Z,4.47
2023-02-28T12:48:29.144Z,3.98
2023-02-28T12:49:29.142Z,4.17
2023-02-28T12:50:29.146Z,4.27
2023-02-28T12:51:29.463Z,4.17
2023-02-28T12:52:29.144Z,4.27
2023-02-28T12:53:29.138Z,4.17
2023-02-28T12:54:29.145Z,4.37
2023-02-28T12:55:29.136Z,4.17
2023-02-28T12:56:29.380Z,4.37
2023-02-28T12:57:29.136Z,4.17
2023-02-28T12:58:29.151Z,4.37
2023-02-28T12:59:29.145Z,4.17
2023-02-28T13:00:29.145Z,4.17
2023-02-28T13:01:29.652Z,4.17
2023-02-28T13:02:29.222Z,4.17
2023-02-28T13:03:29.136Z,4.27
2023-02-28T13:04:29.146Z,4.37
2023-02-28T13:05:29.135Z,3.98
2023-02-28T13:06:29.144Z,4.47
2023-02-28T13:07:29.141Z,3.98
2023-02-28T13:08:29.140Z,4.37
2023-02-28T13:09:29.133Z,4.27
2023-02-28T13:10:29.141Z,4.08
2023-02-28T13:11:29.156Z,4.17
2023-02-28T13:12:29.140Z,3.98
2023-02-28T13:13:29.133Z,4.47
2023-02-28T13:14:29.149Z,4.08
2023-02-28T13:15:29.160Z,3.98
2023-02-28T13:16:29.203Z,4.27
2023-02-28T13:17:29.140Z,3.98
2023-02-28T13:18:29.162Z,5.24
2023-02-28T13:19:29.130Z,6.60